sensor_id;sensor_type;location;lat;lon;timestamp;temperature;humidity
11540;DHT22;5826;54.756;9.192;2023-01-30T00:00:54;6.70;99.90
11540;DHT22;5826;54.756;9.192;2023-01-30T00:03:21;6.70;99.90
11540;DHT22;5826;54.756;9.192;2023-01-30T00:05:47;6.60;99.90
11540;DHT22;5826;54.756;9.192;2023-01-30T00:08:12;6.60;99.90
11540;DHT22;5826;54.756;9.192;2023-01-30T00:10:38;6.60;99.90
11540;DHT22;5826;54.756;9.192;2023-01-30T00:13:04;6.60;99.90
11540;DHT22;5826;54.756;9.192;2023-01-30T00:15:29;6.60;99.90
11540;DHT22;5826;54.756;9.192;2023-01-30T00:17:55;6.60;99.90
11540;DHT22;5826;54.756;9.192;2023-01-30T00:20:20;6.60;99.90
11540;DHT22;5826;54.756;9.192;2023-01-30T00:22:45;6.60;99.90
11540;DHT22;5826;54.756;9.192;2023-01-30T00:25:11;6.60;99.90
11540;DHT22;5826;54.756;9.192;2023-01-30T00:27:36;6.60;99.90
11540;DHT22;5826;54.756;9.192;2023-01-30T00:30:02;6.60;99.90
11540;DHT22;5826;54.756;9.192;2023-01-30T00:32:30;6.60;99.90
11540;DHT22;5826;54.756;9.192;2023-01-30T00:34:56;6.70;99.90
11540;DHT22;5826;54.756;9.192;2023-01-30T00:37:22;6.70;99.90
11540;DHT22;5826;54.756;9.192;2023-01-30T00:39:47;6.60;99.90
11540;DHT22;5826;54.756;9.192;2023-01-30T00:42:13;6.70;99.90
11540;DHT22;5826;54.756;9.192;2023-01-30T00:44:56;6.60;99.90
11540;DHT22;5826;54.756;9.192;2023-01-30T00:47:40;6.60;99.90
11540;DHT22;5826;54.756;9.192;2023-01-30T00:50:06;6.60;99.90
11540;DHT22;5826;54.756;9.192;2023-01-30T00:52:32;6.60;99.90
11540;DHT22;5826;54.756;9.192;2023-01-30T00:54:57;6.60;99.90
11540;DHT22;5826;54.756;9.192;2023-01-30T00:57:23;6.70;99.90
11540;DHT22;5826;54.756;9.192;2023-01-30T00:59:48;6.70;99.90
11540;DHT22;5826;54.756;9.192;2023-01-30T01:02:14;6.70;99.90
11540;DHT22;5826;54.756;9.192;2023-01-30T01:04:39;6.70;99.90
11540;DHT22;5826;54.756;9.192;2023-01-30T01:07:09;6.70;99.90
11540;DHT22;5826;54.756;9.192;2023-01-30T01:09:34;6.70;99.90
11540;DHT22;5826;54.756;9.192;2023-01-30T01:12:00;6.70;99.90
11540;DHT22;5826;54.756;9.192;2023-01-30T01:14:25;6.70;99.90
11540;DHT22;5826;54.756;9.192;2023-01-30T01:16:51;6.70;99.90
11540;DHT22;5826;54.756;9.192;2023-01-30T01:19:16;6.70;99.90
11540;DHT22;5826;54.756;9.192;2023-01-30T01:21:42;6.70;99.90
11540;DHT22;5826;54.756;9.192;2023-01-30T01:24:12;6.70;99.90
11540;DHT22;5826;54.756;9.192;2023-01-30T01:26:38;6.70;99.90
11540;DHT22;5826;54.756;9.192;2023-01-30T01:29:03;6.70;99.90
11540;DHT22;5826;54.756;9.192;2023-01-30T01:31:30;6.70;99.90
11540;DHT22;5826;54.756;9.192;2023-01-30T01:33:55;6.70;99.90
11540;DHT22;5826;54.756;9.192;2023-01-30T01:36:22;6.60;99.90
11540;DHT22;5826;54.756;9.192;2023-01-30T01:38:47;6.60;99.90
11540;DHT22;5826;54.756;9.192;2023-01-30T01:41:14;6.60;99.90
11540;DHT22;5826;54.756;9.192;2023-01-30T01:44:16;6.50;99.90
11540;DHT22;5826;54.756;9.192;2023-01-30T01:46:52;6.40;99.90
11540;DHT22;5826;54.756;9.192;2023-01-30T01:49:23;6.40;99.90
11540;DHT22;5826;54.756;9.192;2023-01-30T01:51:53;6.40;99.90
11540;DHT22;5826;54.756;9.192;2023-01-30T01:54:35;6.40;99.90
11540;DHT22;5826;54.756;9.192;2023-01-30T01:57:05;6.40;99.90
11540;DHT22;5826;54.756;9.192;2023-01-30T01:59:35;6.40;99.90
11540;DHT22;5826;54.756;9.192;2023-01-30T02:02:06;6.40;99.90
11540;DHT22;5826;54.756;9.192;2023-01-30T02:04:33;6.40;99.90
11540;DHT22;5826;54.756;9.192;2023-01-30T02:07:20;6.40;99.90
11540;DHT22;5826;54.756;9.192;2023-01-30T02:09:47;6.40;99.90
11540;DHT22;5826;54.756;9.192;2023-01-30T02:12:14;6.40;99.90
11540;DHT22;5826;54.756;9.192;2023-01-30T02:14:40;6.40;99.90
11540;DHT22;5826;54.756;9.192;2023-01-30T02:17:07;6.40;99.90
11540;DHT22;5826;54.756;9.192;2023-01-30T02:19:53;6.40;99.90
11540;DHT22;5826;54.756;9.192;2023-01-30T02:22:49;6.40;99.90
11540;DHT22;5826;54.756;9.192;2023-01-30T02:31:14;6.40;99.90
11540;DHT22;5826;54.756;9.192;2023-01-30T02:42:37;6.30;99.90
11540;DHT22;5826;54.756;9.192;2023-01-30T02:50:24;6.30;99.90
11540;DHT22;5826;54.756;9.192;2023-01-30T02:52:50;6.20;99.90
11540;DHT22;5826;54.756;9.192;2023-01-30T02:55:19;6.20;99.90
11540;DHT22;5826;54.756;9.192;2023-01-30T02:57:45;6.20;99.90
11540;DHT22;5826;54.756;9.192;2023-01-30T03:00:12;6.20;99.90
11540;DHT22;5826;54.756;9.192;2023-01-30T03:08:47;6.10;99.90
11540;DHT22;5826;54.756;9.192;2023-01-30T03:11:17;6.20;99.90
11540;DHT22;5826;54.756;9.192;2023-01-30T03:13:55;6.20;99.90
11540;DHT22;5826;54.756;9.192;2023-01-30T03:16:36;6.10;99.90
11540;DHT22;5826;54.756;9.192;2023-01-30T03:19:04;6.10;99.90
11540;DHT22;5826;54.756;9.192;2023-01-30T03:21:31;6.10;99.90
11540;DHT22;5826;54.756;9.192;2023-01-30T03:23:57;6.10;99.90
11540;DHT22;5826;54.756;9.192;2023-01-30T03:26:26;6.10;99.90
11540;DHT22;5826;54.756;9.192;2023-01-30T03:28:53;6.10;99.90
11540;DHT22;5826;54.756;9.192;2023-01-30T03:31:19;6.10;99.90
11540;DHT22;5826;54.756;9.192;2023-01-30T03:33:44;6.10;99.90
11540;DHT22;5826;54.756;9.192;2023-01-30T03:36:10;6.00;99.90
11540;DHT22;5826;54.756;9.192;2023-01-30T03:38:36;6.00;99.90
11540;DHT22;5826;54.756;9.192;2023-01-30T03:41:03;6.00;99.90
11540;DHT22;5826;54.756;9.192;2023-01-30T03:43:29;5.90;99.90
11540;DHT22;5826;54.756;9.192;2023-01-30T03:45:54;5.90;99.90
11540;DHT22;5826;54.756;9.192;2023-01-30T03:48:20;5.90;99.90
11540;DHT22;5826;54.756;9.192;2023-01-30T03:50:45;5.90;99.90
11540;DHT22;5826;54.756;9.192;2023-01-30T03:53:11;5.90;99.90
11540;DHT22;5826;54.756;9.192;2023-01-30T03:55:36;5.80;99.90
11540;DHT22;5826;54.756;9.192;2023-01-30T03:58:03;5.80;99.90
11540;DHT22;5826;54.756;9.192;2023-01-30T04:00:29;5.80;99.90
11540;DHT22;5826;54.756;9.192;2023-01-30T04:02:55;5.80;99.90
11540;DHT22;5826;54.756;9.192;2023-01-30T04:05:21;5.80;99.90
11540;DHT22;5826;54.756;9.192;2023-01-30T04:07:47;5.80;99.90
11540;DHT22;5826;54.756;9.192;2023-01-30T04:10:13;5.90;99.90
11540;DHT22;5826;54.756;9.192;2023-01-30T04:12:40;5.90;99.90
11540;DHT22;5826;54.756;9.192;2023-01-30T04:15:07;5.90;99.90
11540;DHT22;5826;54.756;9.192;2023-01-30T04:17:33;5.90;99.90
11540;DHT22;5826;54.756;9.192;2023-01-30T04:19:58;5.90;99.90
11540;DHT22;5826;54.756;9.192;2023-01-30T04:22:24;5.90;99.90
11540;DHT22;5826;54.756;9.192;2023-01-30T04:24:49;5.90;99.90
11540;DHT22;5826;54.756;9.192;2023-01-30T04:27:15;5.90;99.90
11540;DHT22;5826;54.756;9.192;2023-01-30T04:29:40;6.00;99.90
11540;DHT22;5826;54.756;9.192;2023-01-30T04:32:06;6.00;99.90
11540;DHT22;5826;54.756;9.192;2023-01-30T04:34:32;6.00;99.90
11540;DHT22;5826;54.756;9.192;2023-01-30T04:36:57;6.00;99.90
11540;DHT22;5826;54.756;9.192;2023-01-30T04:39:23;6.00;99.90
11540;DHT22;5826;54.756;9.192;2023-01-30T04:41:48;6.00;99.90
11540;DHT22;5826;54.756;9.192;2023-01-30T04:44:14;6.00;99.90
11540;DHT22;5826;54.756;9.192;2023-01-30T04:46:39;5.90;99.90
11540;DHT22;5826;54.756;9.192;2023-01-30T04:49:05;5.90;99.90
11540;DHT22;5826;54.756;9.192;2023-01-30T04:51:30;5.90;99.90
11540;DHT22;5826;54.756;9.192;2023-01-30T04:53:56;5.90;99.90
11540;DHT22;5826;54.756;9.192;2023-01-30T04:56:21;5.90;99.90
11540;DHT22;5826;54.756;9.192;2023-01-30T04:58:47;5.90;99.90
11540;DHT22;5826;54.756;9.192;2023-01-30T05:04:08;5.90;99.90
11540;DHT22;5826;54.756;9.192;2023-01-30T05:06:35;5.90;99.90
11540;DHT22;5826;54.756;9.192;2023-01-30T05:09:01;5.90;99.90
11540;DHT22;5826;54.756;9.192;2023-01-30T05:11:28;6.00;99.90
11540;DHT22;5826;54.756;9.192;2023-01-30T05:13:54;5.90;99.90
11540;DHT22;5826;54.756;9.192;2023-01-30T05:16:21;5.90;99.90
11540;DHT22;5826;54.756;9.192;2023-01-30T05:18:47;5.90;99.90
11540;DHT22;5826;54.756;9.192;2023-01-30T05:21:15;5.90;99.90
11540;DHT22;5826;54.756;9.192;2023-01-30T05:23:41;5.90;99.90
11540;DHT22;5826;54.756;9.192;2023-01-30T05:26:07;5.90;99.90
11540;DHT22;5826;54.756;9.192;2023-01-30T05:28:34;5.90;99.90
11540;DHT22;5826;54.756;9.192;2023-01-30T05:31:00;5.90;99.90
11540;DHT22;5826;54.756;9.192;2023-01-30T05:33:26;5.90;99.90
11540;DHT22;5826;54.756;9.192;2023-01-30T05:35:52;5.90;99.90
11540;DHT22;5826;54.756;9.192;2023-01-30T05:38:17;5.90;99.90
11540;DHT22;5826;54.756;9.192;2023-01-30T05:40:43;5.90;99.90
11540;DHT22;5826;54.756;9.192;2023-01-30T05:43:08;5.90;99.90
11540;DHT22;5826;54.756;9.192;2023-01-30T05:45:35;5.90;99.90
11540;DHT22;5826;54.756;9.192;2023-01-30T05:48:01;6.00;99.90
11540;DHT22;5826;54.756;9.192;2023-01-30T05:50:27;5.90;99.90
11540;DHT22;5826;54.756;9.192;2023-01-30T05:52:52;5.90;99.90
11540;DHT22;5826;54.756;9.192;2023-01-30T05:55:17;6.00;99.90
11540;DHT22;5826;54.756;9.192;2023-01-30T05:57:43;6.00;99.90
11540;DHT22;5826;54.756;9.192;2023-01-30T06:00:09;6.00;99.90
11540;DHT22;5826;54.756;9.192;2023-01-30T06:02:35;6.00;99.90
11540;DHT22;5826;54.756;9.192;2023-01-30T06:05:00;6.00;99.90
11540;DHT22;5826;54.756;9.192;2023-01-30T06:07:26;6.00;99.90
11540;DHT22;5826;54.756;9.192;2023-01-30T06:09:51;6.00;99.90
11540;DHT22;5826;54.756;9.192;2023-01-30T06:12:17;6.00;99.90
11540;DHT22;5826;54.756;9.192;2023-01-30T06:14:42;6.10;99.90
11540;DHT22;5826;54.756;9.192;2023-01-30T06:17:08;6.00;99.90
11540;DHT22;5826;54.756;9.192;2023-01-30T06:19:33;6.10;99.90
11540;DHT22;5826;54.756;9.192;2023-01-30T06:21:59;6.10;99.90
11540;DHT22;5826;54.756;9.192;2023-01-30T06:24:24;6.00;99.90
11540;DHT22;5826;54.756;9.192;2023-01-30T06:26:50;6.00;99.90
11540;DHT22;5826;54.756;9.192;2023-01-30T06:29:15;6.00;99.90
11540;DHT22;5826;54.756;9.192;2023-01-30T06:31:41;6.10;99.90
11540;DHT22;5826;54.756;9.192;2023-01-30T06:34:06;6.10;99.90
11540;DHT22;5826;54.756;9.192;2023-01-30T06:36:32;6.10;99.90
11540;DHT22;5826;54.756;9.192;2023-01-30T06:38:57;6.10;99.90
11540;DHT22;5826;54.756;9.192;2023-01-30T06:41:23;6.20;99.90
11540;DHT22;5826;54.756;9.192;2023-01-30T06:43:48;6.20;99.90
11540;DHT22;5826;54.756;9.192;2023-01-30T06:46:14;6.20;99.90
11540;DHT22;5826;54.756;9.192;2023-01-30T06:48:39;6.20;99.90
11540;DHT22;5826;54.756;9.192;2023-01-30T06:51:05;6.20;99.90
11540;DHT22;5826;54.756;9.192;2023-01-30T06:53:30;6.20;99.90
11540;DHT22;5826;54.756;9.192;2023-01-30T06:55:57;6.20;99.90
11540;DHT22;5826;54.756;9.192;2023-01-30T06:58:22;6.20;99.90
11540;DHT22;5826;54.756;9.192;2023-01-30T07:00:48;6.20;99.90
11540;DHT22;5826;54.756;9.192;2023-01-30T07:03:15;6.20;99.90
11540;DHT22;5826;54.756;9.192;2023-01-30T07:05:43;6.20;99.90
11540;DHT22;5826;54.756;9.192;2023-01-30T07:08:09;6.20;99.90
11540;DHT22;5826;54.756;9.192;2023-01-30T07:10:35;6.30;99.90
11540;DHT22;5826;54.756;9.192;2023-01-30T07:13:01;6.20;99.90
11540;DHT22;5826;54.756;9.192;2023-01-30T07:15:27;6.20;99.90
11540;DHT22;5826;54.756;9.192;2023-01-30T07:17:52;6.00;99.90
11540;DHT22;5826;54.756;9.192;2023-01-30T07:20:18;5.60;99.90
11540;DHT22;5826;54.756;9.192;2023-01-30T07:22:54;5.30;99.90
11540;DHT22;5826;54.756;9.192;2023-01-30T07:25:21;5.20;99.90
11540;DHT22;5826;54.756;9.192;2023-01-30T07:27:55;5.10;99.90
11540;DHT22;5826;54.756;9.192;2023-01-30T07:30:20;5.00;99.90
11540;DHT22;5826;54.756;9.192;2023-01-30T07:32:53;4.90;99.90
11540;DHT22;5826;54.756;9.192;2023-01-30T07:35:21;4.90;99.90
11540;DHT22;5826;54.756;9.192;2023-01-30T07:37:47;4.90;99.90
11540;DHT22;5826;54.756;9.192;2023-01-30T07:40:14;4.80;99.90
11540;DHT22;5826;54.756;9.192;2023-01-30T07:42:40;4.80;99.90
11540;DHT22;5826;54.756;9.192;2023-01-30T07:45:06;4.80;99.90
11540;DHT22;5826;54.756;9.192;2023-01-30T07:47:31;4.80;99.90
11540;DHT22;5826;54.756;9.192;2023-01-30T07:49:57;4.80;99.90
11540;DHT22;5826;54.756;9.192;2023-01-30T07:52:22;4.80;99.90
11540;DHT22;5826;54.756;9.192;2023-01-30T07:54:48;4.80;99.90
11540;DHT22;5826;54.756;9.192;2023-01-30T07:57:13;4.80;99.90
11540;DHT22;5826;54.756;9.192;2023-01-30T07:59:39;4.80;99.90
11540;DHT22;5826;54.756;9.192;2023-01-30T08:02:05;4.90;99.90
11540;DHT22;5826;54.756;9.192;2023-01-30T08:04:30;4.90;99.90
11540;DHT22;5826;54.756;9.192;2023-01-30T08:06:56;4.90;99.90
11540;DHT22;5826;54.756;9.192;2023-01-30T08:09:21;5.00;99.90
11540;DHT22;5826;54.756;9.192;2023-01-30T08:11:47;5.00;99.90
11540;DHT22;5826;54.756;9.192;2023-01-30T08:14:12;5.00;99.90
11540;DHT22;5826;54.756;9.192;2023-01-30T08:16:38;5.00;99.90
11540;DHT22;5826;54.756;9.192;2023-01-30T08:19:04;5.00;99.90
11540;DHT22;5826;54.756;9.192;2023-01-30T08:21:30;5.00;99.90
11540;DHT22;5826;54.756;9.192;2023-01-30T08:23:56;5.00;99.90
11540;DHT22;5826;54.756;9.192;2023-01-30T08:26:21;5.00;99.90
11540;DHT22;5826;54.756;9.192;2023-01-30T08:28:47;5.00;99.90
11540;DHT22;5826;54.756;9.192;2023-01-30T08:31:13;5.10;99.90
11540;DHT22;5826;54.756;9.192;2023-01-30T08:33:39;5.20;99.90
11540;DHT22;5826;54.756;9.192;2023-01-30T08:36:05;5.20;99.90
11540;DHT22;5826;54.756;9.192;2023-01-30T08:38:30;5.30;99.90
11540;DHT22;5826;54.756;9.192;2023-01-30T08:40:56;5.40;99.90
11540;DHT22;5826;54.756;9.192;2023-01-30T08:43:22;5.40;99.90
11540;DHT22;5826;54.756;9.192;2023-01-30T08:45:48;5.50;99.90
11540;DHT22;5826;54.756;9.192;2023-01-30T08:48:14;5.50;99.90
11540;DHT22;5826;54.756;9.192;2023-01-30T08:50:39;5.50;99.90
11540;DHT22;5826;54.756;9.192;2023-01-30T08:53:06;5.60;99.90
11540;DHT22;5826;54.756;9.192;2023-01-30T08:55:34;5.60;99.90
11540;DHT22;5826;54.756;9.192;2023-01-30T08:58:00;5.70;99.90
11540;DHT22;5826;54.756;9.192;2023-01-30T09:00:26;5.80;99.90
11540;DHT22;5826;54.756;9.192;2023-01-30T09:02:54;5.90;99.90
11540;DHT22;5826;54.756;9.192;2023-01-30T09:05:20;6.00;99.90
11540;DHT22;5826;54.756;9.192;2023-01-30T09:07:45;6.20;99.90
11540;DHT22;5826;54.756;9.192;2023-01-30T09:10:11;6.30;99.90
11540;DHT22;5826;54.756;9.192;2023-01-30T09:12:36;6.30;99.90
11540;DHT22;5826;54.756;9.192;2023-01-30T09:15:02;6.30;99.90
11540;DHT22;5826;54.756;9.192;2023-01-30T09:17:28;6.20;99.90
11540;DHT22;5826;54.756;9.192;2023-01-30T09:19:53;6.20;99.90
11540;DHT22;5826;54.756;9.192;2023-01-30T09:22:19;6.10;99.90
11540;DHT22;5826;54.756;9.192;2023-01-30T09:24:44;6.00;99.90
11540;DHT22;5826;54.756;9.192;2023-01-30T09:27:10;6.00;99.90
11540;DHT22;5826;54.756;9.192;2023-01-30T09:29:35;5.90;99.90
11540;DHT22;5826;54.756;9.192;2023-01-30T09:32:01;5.90;99.90
11540;DHT22;5826;54.756;9.192;2023-01-30T09:34:26;5.90;99.90
11540;DHT22;5826;54.756;9.192;2023-01-30T09:36:59;5.90;99.90
11540;DHT22;5826;54.756;9.192;2023-01-30T09:39:25;5.90;99.90
11540;DHT22;5826;54.756;9.192;2023-01-30T09:44:53;5.90;99.90
11540;DHT22;5826;54.756;9.192;2023-01-30T09:47:54;6.00;99.90
11540;DHT22;5826;54.756;9.192;2023-01-30T09:50:44;6.10;99.90
11540;DHT22;5826;54.756;9.192;2023-01-30T09:56:08;6.20;99.90
11540;DHT22;5826;54.756;9.192;2023-01-30T09:58:55;6.20;99.90
11540;DHT22;5826;54.756;9.192;2023-01-30T10:04:17;6.30;99.90
11540;DHT22;5826;54.756;9.192;2023-01-30T10:09:53;6.30;99.90
11540;DHT22;5826;54.756;9.192;2023-01-30T10:12:43;6.30;99.90
11540;DHT22;5826;54.756;9.192;2023-01-30T10:15:33;6.30;99.90
11540;DHT22;5826;54.756;9.192;2023-01-30T10:18:35;6.20;99.90
11540;DHT22;5826;54.756;9.192;2023-01-30T10:26:39;6.00;99.90
11540;DHT22;5826;54.756;9.192;2023-01-30T10:29:18;5.90;99.90
11540;DHT22;5826;54.756;9.192;2023-01-30T10:34:28;6.10;99.90
11540;DHT22;5826;54.756;9.192;2023-01-30T10:37:08;6.10;99.90
11540;DHT22;5826;54.756;9.192;2023-01-30T10:39:49;6.10;99.90
11540;DHT22;5826;54.756;9.192;2023-01-30T10:42:29;6.20;99.90
11540;DHT22;5826;54.756;9.192;2023-01-30T10:45:07;6.20;99.90
11540;DHT22;5826;54.756;9.192;2023-01-30T10:50:29;6.50;99.90
11540;DHT22;5826;54.756;9.192;2023-01-30T10:53:23;6.70;99.90
11540;DHT22;5826;54.756;9.192;2023-01-30T10:56:07;7.00;99.90
11540;DHT22;5826;54.756;9.192;2023-01-30T10:58:47;7.10;99.90
11540;DHT22;5826;54.756;9.192;2023-01-30T11:01:48;7.30;99.90
11540;DHT22;5826;54.756;9.192;2023-01-30T11:04:29;7.20;99.90
11540;DHT22;5826;54.756;9.192;2023-01-30T11:06:58;7.00;99.90
11540;DHT22;5826;54.756;9.192;2023-01-30T11:09:37;6.70;99.90
11540;DHT22;5826;54.756;9.192;2023-01-30T11:12:03;6.50;99.90
11540;DHT22;5826;54.756;9.192;2023-01-30T11:14:52;6.20;99.90
11540;DHT22;5826;54.756;9.192;2023-01-30T11:17:19;6.10;99.90
11540;DHT22;5826;54.756;9.192;2023-01-30T11:19:54;6.00;99.90
11540;DHT22;5826;54.756;9.192;2023-01-30T11:22:23;6.00;99.90
11540;DHT22;5826;54.756;9.192;2023-01-30T11:25:00;6.00;99.90
11540;DHT22;5826;54.756;9.192;2023-01-30T11:27:32;6.10;99.90
11540;DHT22;5826;54.756;9.192;2023-01-30T11:32:31;6.30;99.90
11540;DHT22;5826;54.756;9.192;2023-01-30T11:35:24;6.40;99.90
11540;DHT22;5826;54.756;9.192;2023-01-30T11:37:50;6.50;99.90
11540;DHT22;5826;54.756;9.192;2023-01-30T11:42:45;6.80;99.90
11540;DHT22;5826;54.756;9.192;2023-01-30T11:45:11;7.00;99.90
11540;DHT22;5826;54.756;9.192;2023-01-30T11:47:38;7.10;99.90
11540;DHT22;5826;54.756;9.192;2023-01-30T11:50:16;7.20;99.90
11540;DHT22;5826;54.756;9.192;2023-01-30T11:52:43;7.20;99.90
11540;DHT22;5826;54.756;9.192;2023-01-30T11:55:14;7.20;99.90
11540;DHT22;5826;54.756;9.192;2023-01-30T11:57:43;7.20;99.90
11540;DHT22;5826;54.756;9.192;2023-01-30T12:00:16;7.20;99.90
11540;DHT22;5826;54.756;9.192;2023-01-30T12:02:44;7.20;99.90
11540;DHT22;5826;54.756;9.192;2023-01-30T12:10:42;7.10;99.90
11540;DHT22;5826;54.756;9.192;2023-01-30T12:13:21;7.10;99.90
11540;DHT22;5826;54.756;9.192;2023-01-30T12:15:53;7.10;99.90
11540;DHT22;5826;54.756;9.192;2023-01-30T12:18:31;7.00;99.90
11540;DHT22;5826;54.756;9.192;2023-01-30T12:21:01;6.90;99.90
11540;DHT22;5826;54.756;9.192;2023-01-30T12:23:44;6.90;99.90
11540;DHT22;5826;54.756;9.192;2023-01-30T12:26:25;6.90;99.90
11540;DHT22;5826;54.756;9.192;2023-01-30T12:31:30;6.70;99.90
11540;DHT22;5826;54.756;9.192;2023-01-30T12:33:56;6.60;99.90
11540;DHT22;5826;54.756;9.192;2023-01-30T12:41:47;7.00;99.90
11540;DHT22;5826;54.756;9.192;2023-01-30T12:58:20;7.20;99.90
11540;DHT22;5826;54.756;9.192;2023-01-30T13:01:10;7.10;99.90
11540;DHT22;5826;54.756;9.192;2023-01-30T13:03:43;7.00;99.90
11540;DHT22;5826;54.756;9.192;2023-01-30T13:15:24;7.10;99.90
11540;DHT22;5826;54.756;9.192;2023-01-30T13:20:53;9.10;99.90
11540;DHT22;5826;54.756;9.192;2023-01-30T13:26:07;9.40;99.90
11540;DHT22;5826;54.756;9.192;2023-01-30T13:28:39;9.10;99.90
11540;DHT22;5826;54.756;9.192;2023-01-30T13:31:09;8.90;99.90
11540;DHT22;5826;54.756;9.192;2023-01-30T13:33:37;8.80;99.90
11540;DHT22;5826;54.756;9.192;2023-01-30T13:36:22;8.70;99.90
11540;DHT22;5826;54.756;9.192;2023-01-30T13:39:05;8.30;99.90
11540;DHT22;5826;54.756;9.192;2023-01-30T13:41:41;8.10;99.90
11540;DHT22;5826;54.756;9.192;2023-01-30T13:44:19;8.20;99.90
11540;DHT22;5826;54.756;9.192;2023-01-30T13:46:46;8.40;99.90
11540;DHT22;5826;54.756;9.192;2023-01-30T13:49:37;8.50;99.90
11540;DHT22;5826;54.756;9.192;2023-01-30T13:52:19;8.60;99.90
11540;DHT22;5826;54.756;9.192;2023-01-30T13:58:02;8.90;99.90
11540;DHT22;5826;54.756;9.192;2023-01-30T14:00:31;9.00;99.90
11540;DHT22;5826;54.756;9.192;2023-01-30T14:08:21;10.40;99.90
11540;DHT22;5826;54.756;9.192;2023-01-30T14:10:48;10.60;99.90
11540;DHT22;5826;54.756;9.192;2023-01-30T14:13:15;10.90;99.90
11540;DHT22;5826;54.756;9.192;2023-01-30T14:18:21;11.20;99.90
11540;DHT22;5826;54.756;9.192;2023-01-30T14:20:49;11.30;99.90
11540;DHT22;5826;54.756;9.192;2023-01-30T14:23:19;10.90;99.90
11540;DHT22;5826;54.756;9.192;2023-01-30T14:25:53;10.20;99.90
11540;DHT22;5826;54.756;9.192;2023-01-30T14:30:51;9.10;99.90
11540;DHT22;5826;54.756;9.192;2023-01-30T14:38:24;8.80;99.90
11540;DHT22;5826;54.756;9.192;2023-01-30T14:46:04;9.40;99.90
11540;DHT22;5826;54.756;9.192;2023-01-30T15:02:38;8.50;99.90
11540;DHT22;5826;54.756;9.192;2023-01-30T15:04:45;8.40;99.90
11540;DHT22;5826;54.756;9.192;2023-01-30T15:07:40;8.20;99.90
11540;DHT22;5826;54.756;9.192;2023-01-30T15:15:57;8.00;99.90
11540;DHT22;5826;54.756;9.192;2023-01-30T15:18:35;7.80;99.90
11540;DHT22;5826;54.756;9.192;2023-01-30T15:26:52;7.20;99.90
11540;DHT22;5826;54.756;9.192;2023-01-30T15:29:51;7.10;99.90
11540;DHT22;5826;54.756;9.192;2023-01-30T15:32:23;7.00;99.90
11540;DHT22;5826;54.756;9.192;2023-01-30T15:34:55;7.00;99.90
11540;DHT22;5826;54.756;9.192;2023-01-30T15:42:47;7.00;99.90
11540;DHT22;5826;54.756;9.192;2023-01-30T15:48:34;6.90;99.90
11540;DHT22;5826;54.756;9.192;2023-01-30T15:51:02;6.90;99.90
11540;DHT22;5826;54.756;9.192;2023-01-30T15:53:38;6.80;99.90
11540;DHT22;5826;54.756;9.192;2023-01-30T15:56:12;6.80;99.90
11540;DHT22;5826;54.756;9.192;2023-01-30T15:58:42;6.70;99.90
11540;DHT22;5826;54.756;9.192;2023-01-30T16:01:09;6.60;99.90
11540;DHT22;5826;54.756;9.192;2023-01-30T16:03:40;6.60;99.90
11540;DHT22;5826;54.756;9.192;2023-01-30T16:06:23;6.50;99.90
11540;DHT22;5826;54.756;9.192;2023-01-30T16:08:57;6.50;99.90
11540;DHT22;5826;54.756;9.192;2023-01-30T16:11:41;6.40;99.90
11540;DHT22;5826;54.756;9.192;2023-01-30T16:14:12;6.40;99.90
11540;DHT22;5826;54.756;9.192;2023-01-30T16:16:42;6.40;99.90
11540;DHT22;5826;54.756;9.192;2023-01-30T16:19:18;6.40;99.90
11540;DHT22;5826;54.756;9.192;2023-01-30T16:21:45;6.30;99.90
11540;DHT22;5826;54.756;9.192;2023-01-30T16:24:21;6.20;99.90
11540;DHT22;5826;54.756;9.192;2023-01-30T16:26:51;6.00;99.90
11540;DHT22;5826;54.756;9.192;2023-01-30T16:29:21;5.90;99.90
11540;DHT22;5826;54.756;9.192;2023-01-30T16:31:48;5.80;99.90
11540;DHT22;5826;54.756;9.192;2023-01-30T16:36:57;5.70;99.90
11540;DHT22;5826;54.756;9.192;2023-01-30T16:39:43;5.70;99.90
11540;DHT22;5826;54.756;9.192;2023-01-30T16:42:26;5.70;99.90
11540;DHT22;5826;54.756;9.192;2023-01-30T16:45:36;5.70;99.90
11540;DHT22;5826;54.756;9.192;2023-01-30T16:47:45;5.60;99.90
11540;DHT22;5826;54.756;9.192;2023-01-30T16:50:20;5.60;99.90
11540;DHT22;5826;54.756;9.192;2023-01-30T16:52:55;5.60;99.90
11540;DHT22;5826;54.756;9.192;2023-01-30T16:55:23;5.60;99.90
11540;DHT22;5826;54.756;9.192;2023-01-30T16:57:54;5.50;99.90
11540;DHT22;5826;54.756;9.192;2023-01-30T17:00:31;5.50;99.90
11540;DHT22;5826;54.756;9.192;2023-01-30T17:03:00;5.50;99.90
11540;DHT22;5826;54.756;9.192;2023-01-30T17:05:29;5.50;99.90
11540;DHT22;5826;54.756;9.192;2023-01-30T17:07:56;5.50;99.90
11540;DHT22;5826;54.756;9.192;2023-01-30T17:10:52;5.50;99.90
11540;DHT22;5826;54.756;9.192;2023-01-30T17:13:39;5.40;99.90
11540;DHT22;5826;54.756;9.192;2023-01-30T17:18:50;5.40;99.90
11540;DHT22;5826;54.756;9.192;2023-01-30T17:21:16;5.40;99.90
11540;DHT22;5826;54.756;9.192;2023-01-30T17:23:45;5.30;99.90
11540;DHT22;5826;54.756;9.192;2023-01-30T17:26:13;5.40;99.90
11540;DHT22;5826;54.756;9.192;2023-01-30T17:28:40;5.30;99.90
11540;DHT22;5826;54.756;9.192;2023-01-30T17:31:12;5.40;99.90
11540;DHT22;5826;54.756;9.192;2023-01-30T17:33:38;5.40;99.90
11540;DHT22;5826;54.756;9.192;2023-01-30T17:36:08;5.40;99.90
11540;DHT22;5826;54.756;9.192;2023-01-30T17:38:35;5.40;99.90
11540;DHT22;5826;54.756;9.192;2023-01-30T17:41:01;5.40;99.90
11540;DHT22;5826;54.756;9.192;2023-01-30T17:43:28;5.40;99.90
11540;DHT22;5826;54.756;9.192;2023-01-30T17:45:53;5.40;99.90
11540;DHT22;5826;54.756;9.192;2023-01-30T17:48:19;5.40;99.90
11540;DHT22;5826;54.756;9.192;2023-01-30T17:50:45;5.50;99.90
11540;DHT22;5826;54.756;9.192;2023-01-30T17:53:10;5.40;99.90
11540;DHT22;5826;54.756;9.192;2023-01-30T17:55:36;5.40;99.90
11540;DHT22;5826;54.756;9.192;2023-01-30T17:58:01;5.40;99.90
11540;DHT22;5826;54.756;9.192;2023-01-30T18:00:27;5.40;99.90
11540;DHT22;5826;54.756;9.192;2023-01-30T18:02:53;5.40;99.90
11540;DHT22;5826;54.756;9.192;2023-01-30T18:05:21;5.40;99.90
11540;DHT22;5826;54.756;9.192;2023-01-30T18:07:47;5.40;99.90
11540;DHT22;5826;54.756;9.192;2023-01-30T18:10:16;5.40;99.90
11540;DHT22;5826;54.756;9.192;2023-01-30T18:12:42;5.40;99.90
11540;DHT22;5826;54.756;9.192;2023-01-30T18:15:12;5.40;99.90
11540;DHT22;5826;54.756;9.192;2023-01-30T18:17:46;5.50;99.90
11540;DHT22;5826;54.756;9.192;2023-01-30T18:20:14;5.50;99.90
11540;DHT22;5826;54.756;9.192;2023-01-30T18:22:40;5.60;99.90
11540;DHT22;5826;54.756;9.192;2023-01-30T18:25:06;5.60;99.90
11540;DHT22;5826;54.756;9.192;2023-01-30T18:27:32;5.60;99.90
11540;DHT22;5826;54.756;9.192;2023-01-30T18:29:57;5.50;99.90
11540;DHT22;5826;54.756;9.192;2023-01-30T18:32:22;5.50;99.90
11540;DHT22;5826;54.756;9.192;2023-01-30T18:34:48;5.50;99.90
11540;DHT22;5826;54.756;9.192;2023-01-30T18:37:13;5.40;99.90
11540;DHT22;5826;54.756;9.192;2023-01-30T18:39:39;5.40;99.90
11540;DHT22;5826;54.756;9.192;2023-01-30T18:42:04;5.40;99.90
11540;DHT22;5826;54.756;9.192;2023-01-30T18:44:32;5.40;99.90
11540;DHT22;5826;54.756;9.192;2023-01-30T18:46:57;5.30;99.90
11540;DHT22;5826;54.756;9.192;2023-01-30T18:49:23;5.30;99.90
11540;DHT22;5826;54.756;9.192;2023-01-30T18:51:48;5.30;99.90
11540;DHT22;5826;54.756;9.192;2023-01-30T18:54:14;5.40;99.90
11540;DHT22;5826;54.756;9.192;2023-01-30T18:56:39;5.30;99.90
11540;DHT22;5826;54.756;9.192;2023-01-30T18:59:05;5.30;99.90